Time;durP1;ratioP1;P1;durP2;ratioP2;P2;SDS_P1;SDS_P2;PMS_P1;PMS_P2;Temp;Humidity;BMP_temperature;BMP_pressure;BME280_temperature;BME280_humidity;BME280_pressure;Samples;Min_cycle;Max_cycle;Signal;HPM_P1;HPM_P2
2022/05/22 00:01:03;;;;;;;9.35;2.72;;;;;;;17.50;52.49;101855.94;4944556;29;20071;-66
2022/05/22 00:03:30;;;;;;;4.80;2.08;;;;;;;17.49;52.45;101855.09;4945170;29;20051;-67
2022/05/22 00:05:59;;;;;;;7.00;2.10;;;;;;;17.48;52.53;101855.34;4945268;29;20052;-66
2022/05/22 00:08:28;;;;;;;7.47;2.63;;;;;;;17.46;52.56;101843.91;4944251;29;20056;-67
2022/05/22 00:10:55;;;;;;;6.95;2.75;;;;;;;17.44;52.58;101837.88;4945857;29;20052;-67
2022/05/22 00:13:23;;;;;;;9.23;2.45;;;;;;;17.43;52.56;101845.22;4945771;29;20059;-67
2022/05/22 00:18:37;;;;;;;6.20;2.22;;;;;;;17.40;52.50;101836.72;4944084;29;20058;-67
2022/05/22 00:21:06;;;;;;;5.63;2.70;;;;;;;17.40;52.65;101842.97;4944951;29;20063;-67
2022/05/22 00:23:34;;;;;;;6.13;2.33;;;;;;;17.40;52.58;101837.53;4942000;29;20051;-67
2022/05/22 00:26:02;;;;;;;8.32;2.47;;;;;;;17.38;52.75;101844.28;4944947;29;20453;-67
2022/05/22 00:28:30;;;;;;;6.55;2.47;;;;;;;17.36;52.55;101841.00;4944974;29;20043;-67
2022/05/22 00:30:57;;;;;;;7.43;2.50;;;;;;;17.37;52.68;101837.19;4945321;29;20055;-67
2022/05/22 00:33:27;;;;;;;6.10;2.22;;;;;;;17.32;52.58;101839.84;4944761;29;20059;-67
2022/05/22 00:35:55;;;;;;;7.65;2.63;;;;;;;17.35;52.75;101833.91;4940115;29;20146;-67
2022/05/22 00:38:24;;;;;;;7.57;2.63;;;;;;;17.27;52.75;101824.28;4944938;29;20063;-66
2022/05/22 00:40:52;;;;;;;9.20;2.88;;;;;;;17.31;52.81;101833.59;4944855;29;20047;-67
2022/05/22 00:43:28;;;;;;;6.30;2.20;;;;;;;17.32;52.76;101828.97;4945701;29;20103;-67
2022/05/22 00:45:56;;;;;;;6.07;2.38;;;;;;;17.30;52.89;101825.69;4945163;29;20047;-67
2022/05/22 00:48:26;;;;;;;7.88;2.88;;;;;;;17.30;52.95;101823.78;4944989;29;20051;-67
2022/05/22 00:50:58;;;;;;;7.18;3.15;;;;;;;17.29;52.92;101819.44;4946568;29;20489;-67
2022/05/22 00:53:30;;;;;;;8.50;2.70;;;;;;;17.28;52.84;101811.50;4948460;29;20048;-67
2022/05/22 00:55:58;;;;;;;9.55;2.65;;;;;;;17.27;52.88;101812.59;4950067;29;20163;-67
2022/05/22 00:58:29;;;;;;;8.15;2.42;;;;;;;17.27;52.94;101820.72;4949588;29;20075;-67
2022/05/22 01:00:57;;;;;;;7.63;2.40;;;;;;;17.26;53.17;101829.94;4947233;29;21006;-67
2022/05/22 01:03:31;;;;;;;7.82;2.40;;;;;;;17.24;53.12;101827.47;4949265;29;20052;-67
2022/05/22 01:06:04;;;;;;;10.20;2.85;;;;;;;17.22;53.19;101821.47;4948140;29;20052;-67
2022/05/22 01:08:37;;;;;;;10.48;3.08;;;;;;;17.20;53.04;101819.00;4949105;29;20066;-67
2022/05/22 01:11:09;;;;;;;7.97;3.35;;;;;;;17.19;53.22;101811.06;4947565;29;20047;-66
2022/05/22 01:13:40;;;;;;;6.47;2.80;;;;;;;17.18;53.16;101814.88;4949706;29;20059;-67
2022/05/22 01:16:09;;;;;;;9.75;3.60;;;;;;;17.16;53.29;101814.28;4948905;29;20071;-67
2022/05/22 01:18:46;;;;;;;8.73;2.78;;;;;;;17.14;53.09;101813.69;4949073;29;20485;-67
2022/05/22 01:21:17;;;;;;;6.25;2.47;;;;;;;17.15;53.21;101815.34;4947165;29;20357;-66
2022/05/22 01:23:46;;;;;;;10.00;2.80;;;;;;;17.12;53.24;101824.81;4930046;29;20067;-67
2022/05/22 01:26:14;;;;;;;6.80;2.78;;;;;;;17.12;53.39;101819.38;4944952;29;20058;-66
2022/05/22 01:28:42;;;;;;;7.43;2.28;;;;;;;17.10;53.22;101812.53;4948424;29;20075;-67
2022/05/22 01:31:11;;;;;;;13.00;2.92;;;;;;;17.09;53.36;101808.16;4946964;29;20047;-66
2022/05/22 01:33:40;;;;;;;7.28;3.38;;;;;;;17.06;53.41;101804.03;4947036;29;20044;-67
2022/05/22 01:36:09;;;;;;;7.85;3.85;;;;;;;17.05;53.47;101796.13;4947397;29;20052;-66
2022/05/22 01:38:38;;;;;;;9.00;2.40;;;;;;;17.04;53.23;101792.59;4948262;29;20060;-67
2022/05/22 01:41:07;;;;;;;6.45;2.35;;;;;;;17.03;53.42;101784.69;4947827;29;20083;-67
2022/05/22 01:43:35;;;;;;;5.13;2.45;;;;;;;17.00;53.44;101777.84;4946986;29;20070;-66
2022/05/22 01:46:03;;;;;;;7.22;2.50;;;;;;;17.00;53.52;101780.56;4948502;29;20520;-67
2022/05/22 01:48:31;;;;;;;10.77;3.20;;;;;;;17.01;53.47;101786.81;4948466;29;20132;-66
2022/05/22 01:50:59;;;;;;;6.20;2.40;;;;;;;16.99;53.41;101780.81;4948965;29;20071;-67
2022/05/22 01:53:26;;;;;;;8.13;3.00;;;;;;;16.97;53.32;101774.78;4946510;29;20051;-66
2022/05/22 01:55:54;;;;;;;6.40;2.60;;;;;;;16.97;53.63;101772.06;4947613;29;20055;-67
2022/05/22 01:58:23;;;;;;;6.97;2.47;;;;;;;16.95;53.63;101780.47;4948784;29;20146;-67
2022/05/22 02:00:52;;;;;;;8.32;3.17;;;;;;;16.94;53.49;101781.53;4947053;29;20346;-66
2022/05/22 02:03:19;;;;;;;9.65;3.17;;;;;;;16.93;53.75;101782.59;4947685;29;20051;-66
2022/05/22 02:05:47;;;;;;;9.80;2.90;;;;;;;16.91;53.68;101785.56;4948485;29;20060;-67
2022/05/22 02:08:22;;;;;;;4.72;2.30;;;;;;;16.90;53.83;101775.75;4947040;29;20063;-67
2022/05/22 02:10:53;;;;;;;9.00;2.47;;;;;;;16.89;53.66;101776.81;4946999;29;20044;-67
2022/05/22 02:13:24;;;;;;;8.63;2.85;;;;;;;16.81;53.56;101762.78;4947585;29;20126;-67
2022/05/22 02:15:53;;;;;;;5.38;2.95;;;;;;;16.89;53.64;101768.66;4949658;29;20055;-66
2022/05/22 02:18:21;;;;;;;8.98;2.05;;;;;;;16.86;53.80;101769.16;4948417;29;20054;-67
2022/05/22 02:20:49;;;;;;;11.23;3.75;;;;;;;16.89;53.66;101770.56;4947264;29;20049;-66
2022/05/22 02:23:19;;;;;;;7.93;2.30;;;;;;;16.78;53.68;101747.81;4946576;29;20069;-67
2022/05/22 02:25:50;;;;;;;7.53;2.80;;;;;;;16.86;53.66;101757.47;4943258;29;20480;-67
2022/05/22 02:28:18;;;;;;;7.07;2.40;;;;;;;16.85;53.75;101748.50;4947350;29;20063;-66
2022/05/22 02:30:50;;;;;;;7.65;2.72;;;;;;;16.83;53.67;101750.63;4947301;29;20052;-66
2022/05/22 02:33:18;;;;;;;4.00;2.03;;;;;;;16.82;53.84;101748.97;4947153;29;20115;-67
2022/05/22 02:35:47;;;;;;;7.75;2.78;;;;;;;16.81;53.67;101749.22;4939551;29;20059;-66
2022/05/22 02:38:16;;;;;;;5.57;2.58;;;;;;;16.79;53.68;101743.22;4946802;29;20119;-67
2022/05/22 02:40:44;;;;;;;10.18;2.90;;;;;;;16.78;53.67;101742.38;4946086;29;20138;-67
2022/05/22 02:43:13;;;;;;;6.50;2.55;;;;;;;16.76;53.78;101740.97;4948214;29;20485;-66
2022/05/22 02:45:41;;;;;;;7.22;2.70;;;;;;;16.75;53.92;101734.72;4947434;29;20409;-66
2022/05/22 02:48:11;;;;;;;7.38;2.53;;;;;;;16.75;53.83;101733.91;4948080;29;20460;-67
2022/05/22 02:50:41;;;;;;;6.28;2.40;;;;;;;16.74;53.79;101729.53;4945727;29;20047;-67
2022/05/22 02:53:09;;;;;;;6.18;2.80;;;;;;;16.73;53.82;101730.59;4947184;29;20079;-67
2022/05/22 02:55:39;;;;;;;7.32;2.10;;;;;;;16.73;53.86;101733.31;4947276;29;20127;-66
2022/05/22 02:58:07;;;;;;;10.13;2.60;;;;;;;16.70;53.96;101722.94;4947366;29;20082;-67
2022/05/22 03:00:35;;;;;;;8.45;3.00;;;;;;;16.68;53.89;101730.50;4946360;29;20389;-66
2022/05/22 03:03:02;;;;;;;5.88;2.60;;;;;;;16.67;53.94;101732.38;4945814;29;20103;-66
2022/05/22 03:08:14;;;;;;;6.45;2.67;;;;;;;16.64;53.98;101738.25;4944984;29;20064;-66
2022/05/22 03:10:44;;;;;;;10.35;3.33;;;;;;;16.63;54.00;101733.06;4947200;29;20115;-66
2022/05/22 03:13:12;;;;;;;6.90;2.65;;;;;;;16.62;53.88;101731.44;4945935;29;20149;-67
2022/05/22 03:15:41;;;;;;;7.45;2.75;;;;;;;16.59;54.01;101733.56;4946536;29;20111;-66
2022/05/22 03:18:08;;;;;;;10.80;2.80;;;;;;;16.60;54.21;101726.25;4947663;29;20083;-66
2022/05/22 03:20:38;;;;;;;8.70;2.80;;;;;;;16.57;54.13;101722.13;4946330;29;20065;-67
2022/05/22 03:23:06;;;;;;;7.35;2.97;;;;;;;16.56;54.21;101720.47;4945076;29;20047;-66
2022/05/22 03:25:33;;;;;;;10.88;3.35;;;;;;;16.56;54.23;101728.59;4946574;29;20094;-66
2022/05/22 03:28:01;;;;;;;7.97;2.72;;;;;;;16.54;54.14;101722.59;4946984;29;20059;-67
2022/05/22 03:30:29;;;;;;;11.60;3.67;;;;;;;16.53;54.08;101723.66;4946085;29;20062;-66
2022/05/22 03:32:57;;;;;;;6.68;2.42;;;;;;;16.53;54.12;101711.97;4945445;29;20051;-67
2022/05/22 03:35:25;;;;;;;7.45;3.13;;;;;;;16.52;54.21;101710.34;4945499;29;20051;-67
2022/05/22 03:37:54;;;;;;;8.60;3.00;;;;;;;16.51;54.13;101705.97;4944702;29;20059;-66
2022/05/22 03:40:22;;;;;;;7.60;3.17;;;;;;;16.50;54.11;101707.03;4908569;29;20199;-66
2022/05/22 03:42:50;;;;;;;7.15;3.10;;;;;;;16.49;53.98;101705.38;4907093;29;20052;-67
2022/05/22 03:45:17;;;;;;;10.00;3.45;;;;;;;16.48;54.30;101698.31;4908630;29;20052;-66
2022/05/22 03:47:45;;;;;;;7.57;3.00;;;;;;;16.47;54.16;101702.09;4907774;29;20052;-67
2022/05/22 03:50:15;;;;;;;7.43;2.92;;;;;;;16.43;54.17;101696.31;4908361;29;20128;-66
2022/05/22 03:52:47;;;;;;;6.63;3.20;;;;;;;16.41;54.26;101690.31;4914079;29;20130;-67
2022/05/22 03:55:16;;;;;;;8.68;2.92;;;;;;;16.41;54.29;101687.59;4909062;29;20053;-67
2022/05/22 03:57:46;;;;;;;8.15;3.13;;;;;;;16.41;54.42;101684.06;4908382;29;20078;-66
2022/05/22 04:00:16;;;;;;;7.85;2.58;;;;;;;16.40;54.18;101682.41;4908247;29;20108;-66
2022/05/22 04:02:44;;;;;;;8.43;2.85;;;;;;;16.38;54.40;101682.66;4907455;29;20056;-67
2022/05/22 04:05:13;;;;;;;5.05;2.90;;;;;;;16.38;54.31;101689.97;4906667;29;20052;-66
2022/05/22 04:07:43;;;;;;;5.75;2.80;;;;;;;16.36;54.47;101687.50;4906969;29;20052;-66
2022/05/22 04:10:12;;;;;;;7.90;3.22;;;;;;;16.36;54.25;101686.66;4906065;29;20077;-66
2022/05/22 04:12:43;;;;;;;8.10;3.10;;;;;;;16.34;54.31;101696.94;4906155;29;20052;-66
2022/05/22 04:15:14;;;;;;;5.78;2.85;;;;;;;16.33;54.66;101698.00;4905974;29;20052;-66
2022/05/22 04:17:42;;;;;;;8.95;2.78;;;;;;;16.33;54.45;101695.28;4908075;29;20085;-66
2022/05/22 04:20:10;;;;;;;6.00;2.63;;;;;;;16.31;54.34;101695.53;4907198;29;20052;-66
2022/05/22 04:25:11;;;;;;;6.53;2.60;;;;;;;16.30;54.52;101691.16;4905764;29;20084;-66
2022/05/22 04:25:25;;;;;;;7.72;2.67;;;;;;;16.30;54.53;101687.63;4906796;29;20056;-66
2022/05/22 04:27:54;;;;;;;6.75;2.80;;;;;;;16.28;54.59;101690.56;4907623;29;20068;-66
2022/05/22 04:30:23;;;;;;;6.22;3.67;;;;;;;16.27;54.54;101688.91;4907589;29;20056;-66
2022/05/22 04:32:53;;;;;;;6.85;2.90;;;;;;;16.26;54.56;101685.38;4906808;29;20048;-66
2022/05/22 04:35:22;;;;;;;7.30;3.40;;;;;;;16.24;54.57;101682.09;4906156;29;20055;-66
2022/05/22 04:37:50;;;;;;;7.15;2.90;;;;;;;16.24;54.51;101678.56;4906861;29;20493;-66
2022/05/22 04:40:18;;;;;;;4.45;2.75;;;;;;;16.22;54.31;101686.94;4923180;29;20056;-66
2022/05/22 04:42:45;;;;;;;7.57;3.45;;;;;;;16.17;54.62;101686.00;4925604;29;20068;-66
2022/05/22 04:45:15;;;;;;;7.03;2.72;;;;;;;16.20;54.54;101699.91;4926214;29;20051;-66
2022/05/22 04:47:43;;;;;;;9.70;2.97;;;;;;;16.18;54.63;101702.03;4926092;29;20048;-66
2022/05/22 04:50:13;;;;;;;12.52;4.15;;;;;;;16.18;54.75;101693.06;4926174;29;20052;-67
2022/05/22 04:52:41;;;;;;;8.27;3.25;;;;;;;16.18;54.79;101698.50;4925282;29;20051;-66
2022/05/22 04:55:09;;;;;;;10.00;3.28;;;;;;;16.16;55.02;101698.72;4924741;29;20080;-66
2022/05/22 04:57:37;;;;;;;9.27;3.65;;;;;;;16.17;54.88;101710.41;4923706;29;20059;-66
2022/05/22 05:00:09;;;;;;;7.90;3.30;;;;;;;16.16;54.84;101700.63;4925483;29;20090;-65
2022/05/22 05:02:38;;;;;;;6.72;3.45;;;;;;;16.14;54.90;101695.44;4926634;29;20115;-66
2022/05/22 05:05:09;;;;;;;8.18;3.58;;;;;;;16.14;54.77;101694.59;4923548;29;20404;-66
2022/05/22 05:07:38;;;;;;;11.88;3.33;;;;;;;16.13;54.83;101682.94;4925690;29;20056;-66
2022/05/22 05:10:08;;;;;;;6.13;3.33;;;;;;;16.12;54.70;101686.72;4925352;29;20044;-66
2022/05/22 05:12:38;;;;;;;7.35;3.60;;;;;;;16.11;54.63;101685.06;4925482;29;20052;-66
2022/05/22 05:15:14;;;;;;;9.13;3.25;;;;;;;16.11;54.95;101681.53;4925805;29;20052;-66
2022/05/22 05:17:45;;;;;;;8.07;3.10;;;;;;;16.12;54.67;101684.00;4926664;29;20466;-66
2022/05/22 05:20:17;;;;;;;9.95;3.25;;;;;;;16.11;54.96;101686.94;4585624;29;9999612;-66
2022/05/22 05:22:45;;;;;;;5.30;2.78;;;;;;;16.09;54.68;101683.66;4921746;29;20363;-66
2022/05/22 05:25:14;;;;;;;7.47;3.22;;;;;;;16.10;54.98;101696.97;4922752;29;20056;-65
2022/05/22 05:27:42;;;;;;;8.00;3.28;;;;;;;16.12;55.04;101686.72;4921609;29;20052;-66
2022/05/22 05:30:12;;;;;;;9.57;3.25;;;;;;;16.13;54.91;101685.66;4921709;29;20275;-64
2022/05/22 05:32:40;;;;;;;8.45;3.33;;;;;;;16.13;54.96;101680.22;4922909;29;20080;-66
2022/05/22 05:35:12;;;;;;;8.75;2.85;;;;;;;16.14;54.93;101681.03;4925399;29;20465;-64
2022/05/22 05:37:40;;;;;;;10.60;3.85;;;;;;;16.14;54.88;101686.47;4925744;29;20063;-63
2022/05/22 05:40:09;;;;;;;9.30;3.67;;;;;;;16.16;55.01;101687.88;4941482;29;20083;-64
2022/05/22 05:42:37;;;;;;;10.90;3.50;;;;;;;16.19;55.06;101692.81;4945153;29;20079;-64
2022/05/22 05:45:08;;;;;;;7.25;3.00;;;;;;;16.22;55.16;101688.81;4943517;29;20047;-64
2022/05/22 05:47:36;;;;;;;8.80;3.20;;;;;;;16.24;55.07;101689.41;4940736;29;20044;-65
2022/05/22 05:50:05;;;;;;;5.97;3.10;;;;;;;16.27;55.07;101692.47;4944289;29;20066;-65
2022/05/22 05:52:34;;;;;;;7.15;3.13;;;;;;;16.30;55.07;101693.88;4952967;29;20087;-66
2022/05/22 05:55:03;;;;;;;7.13;2.80;;;;;;;16.32;55.17;101688.19;4944120;29;20616;-64
2022/05/22 05:57:31;;;;;;;10.73;3.42;;;;;;;16.34;54.95;101696.94;4952029;29;20516;-63
2022/05/22 05:59:59;;;;;;;7.75;2.58;;;;;;;16.34;55.09;101692.31;4942894;29;20055;-63
2022/05/22 06:02:27;;;;;;;7.45;3.80;;;;;;;16.37;54.94;101694.56;4943732;29;20066;-64
2022/05/22 06:04:54;;;;;;;6.72;2.70;;;;;;;16.38;55.05;101690.78;4940506;29;20485;-65
2022/05/22 06:07:22;;;;;;;6.32;3.10;;;;;;;16.39;55.02;101689.72;4941130;29;20062;-65
2022/05/22 06:09:52;;;;;;;7.18;2.75;;;;;;;16.39;54.90;101684.28;4944447;29;20070;-65
2022/05/22 06:12:20;;;;;;;9.30;3.03;;;;;;;16.42;55.03;101691.94;4947314;29;20059;-65
2022/05/22 06:14:47;;;;;;;6.05;2.58;;;;;;;16.40;54.96;101685.13;4949558;29;20079;-66
2022/05/22 06:17:16;;;;;;;9.45;2.80;;;;;;;16.46;55.30;101686.88;4941200;29;20083;-66
2022/05/22 06:19:57;;;;;;;14.55;3.58;;;;;;;16.46;55.41;101687.69;4941949;29;20055;-66
2022/05/22 06:22:32;;;;;;;10.98;2.88;;;;;;;16.47;55.26;101689.34;4943842;29;20090;-66
2022/05/22 06:25:03;;;;;;;8.13;3.50;;;;;;;16.49;55.30;101695.34;4954462;29;20082;-65
2022/05/22 06:27:31;;;;;;;7.97;2.83;;;;;;;16.50;55.29;101693.47;4950744;29;20090;-65
2022/05/22 06:30:00;;;;;;;11.07;2.97;;;;;;;16.49;55.22;101697.25;4947744;29;20074;-66
2022/05/22 06:32:28;;;;;;;8.85;3.72;;;;;;;16.49;55.17;101695.34;4945283;29;20059;-65
2022/05/22 06:34:58;;;;;;;7.18;3.20;;;;;;;16.54;55.18;101700.06;4943895;29;20122;-64
2022/05/22 06:37:26;;;;;;;8.95;2.95;;;;;;;16.55;55.10;101705.25;4942332;29;20047;-65
2022/05/22 06:39:54;;;;;;;6.97;2.90;;;;;;;16.56;55.13;101700.66;4940827;29;20051;-65
2022/05/22 06:42:25;;;;;;;6.15;2.55;;;;;;;16.57;54.93;101702.28;4941877;29;20059;-65
2022/05/22 06:44:59;;;;;;;7.68;3.20;;;;;;;16.57;55.09;101699.59;4942242;29;20095;-67
2022/05/22 06:47:29;;;;;;;10.63;2.70;;;;;;;16.57;55.01;101702.28;4939500;29;20102;-66
2022/05/22 06:49:58;;;;;;;7.90;2.65;;;;;;;16.57;55.11;101705.00;4596036;29;10000393;-67
2022/05/22 06:52:26;;;;;;;7.78;2.72;;;;;;;16.56;55.03;101703.34;4940772;29;20051;-66
2022/05/22 06:54:54;;;;;;;5.55;2.25;;;;;;;16.55;55.23;101702.53;4947250;29;20385;-66
2022/05/22 06:57:23;;;;;;;7.82;2.80;;;;;;;16.54;55.15;101697.34;4946407;29;20102;-66
2022/05/22 06:59:55;;;;;;;7.75;2.50;;;;;;;16.54;55.31;101700.88;4947764;29;20489;-65
2022/05/22 07:02:23;;;;;;;4.45;2.10;;;;;;;16.55;54.99;101705.25;4946539;29;20075;-66
2022/05/22 07:04:51;;;;;;;10.80;3.22;;;;;;;16.54;55.33;101703.59;4947266;29;20062;-66
2022/05/22 07:07:19;;;;;;;5.63;2.45;;;;;;;16.54;55.34;101700.88;4947481;29;20059;-66
2022/05/22 07:09:47;;;;;;;6.35;2.90;;;;;;;16.53;55.36;101699.25;4946365;29;20055;-64
2022/05/22 07:12:18;;;;;;;7.95;2.90;;;;;;;16.54;55.46;101706.31;4946276;29;20058;-66
2022/05/22 07:14:48;;;;;;;9.30;3.38;;;;;;;16.55;55.39;101691.69;4948144;29;20114;-66
2022/05/22 07:17:21;;;;;;;6.82;2.83;;;;;;;16.57;55.54;101691.44;4946834;29;20056;-64
2022/05/22 07:19:49;;;;;;;4.53;2.38;;;;;;;16.59;55.57;101689.31;4947961;29;20079;-64
2022/05/22 07:22:17;;;;;;;5.68;2.40;;;;;;;16.60;55.59;101691.78;4945815;29;20083;-64
2022/05/22 07:24:45;;;;;;;5.65;3.00;;;;;;;16.62;55.59;101691.53;4945572;29;20043;-66
2022/05/22 07:27:14;;;;;;;6.45;2.20;;;;;;;16.63;55.61;101693.19;4947056;29;20044;-64
2022/05/22 07:29:41;;;;;;;6.18;2.88;;;;;;;16.66;55.55;101684.59;4947663;29;20059;-64
2022/05/22 07:32:15;;;;;;;6.93;2.47;;;;;;;16.68;55.59;101689.78;4947285;29;20047;-66
2022/05/22 07:34:43;;;;;;;7.63;3.20;;;;;;;16.70;55.67;101684.94;4944186;29;20059;-64
2022/05/22 07:37:12;;;;;;;6.32;2.58;;;;;;;16.71;55.72;101684.69;4945718;29;20055;-64
2022/05/22 07:39:40;;;;;;;5.88;2.67;;;;;;;16.74;55.51;101681.50;4947052;29;20056;-64
2022/05/22 07:42:08;;;;;;;7.85;2.88;;;;;;;16.76;55.67;101683.97;4946542;29;20094;-64
2022/05/22 07:44:37;;;;;;;5.40;2.30;;;;;;;16.79;55.70;101680.78;4945805;29;20090;-67
2022/05/22 07:47:05;;;;;;;7.13;2.63;;;;;;;16.75;55.54;101672.28;4947019;29;20048;-66
2022/05/22 07:52:20;;;;;;;6.47;2.42;;;;;;;16.85;55.81;101677.91;4945703;29;20055;-64
2022/05/22 07:54:49;;;;;;;8.15;2.70;;;;;;;16.88;56.05;101676.59;4946197;29;20055;-64
2022/05/22 07:57:17;;;;;;;8.45;2.78;;;;;;;16.89;55.93;101668.22;4946250;29;20119;-64
2022/05/22 07:59:45;;;;;;;7.40;3.05;;;;;;;16.88;56.20;101650.28;4943897;29;20071;-65
2022/05/22 08:02:13;;;;;;;5.32;2.10;;;;;;;16.94;57.03;101653.06;4943107;29;20047;-65
2022/05/22 08:04:43;;;;;;;8.13;3.03;;;;;;;16.97;56.55;101649.88;4945454;29;20111;-65
2022/05/22 08:07:11;;;;;;;9.48;2.58;;;;;;;16.99;57.75;101654.00;4939046;29;20047;-65
2022/05/22 08:09:39;;;;;;;4.90;2.70;;;;;;;17.00;57.05;101658.34;4941889;29;20136;-65
2022/05/22 08:12:08;;;;;;;9.35;2.33;;;;;;;17.00;56.61;101650.19;4942793;29;20051;-63
2022/05/22 08:14:36;;;;;;;7.55;1.98;;;;;;;16.99;56.43;101651.28;4941409;29;20088;-62
2022/05/22 08:17:05;;;;;;;6.90;2.35;;;;;;;17.00;56.38;101649.38;4597291;28;9999886;-63
2022/05/22 08:19:33;;;;;;;6.88;2.30;;;;;;;17.01;56.68;101645.59;4949358;29;20107;-63
2022/05/22 08:22:02;;;;;;;5.40;1.90;;;;;;;17.02;56.64;101636.38;4949544;29;20062;-64
2022/05/22 08:24:30;;;;;;;5.40;1.98;;;;;;;17.04;57.74;101623.38;4949202;29;20055;-63
2022/05/22 08:26:57;;;;;;;3.97;2.03;;;;;;;17.06;56.73;101622.06;4942371;29;20071;-63
2022/05/22 08:29:25;;;;;;;5.03;2.17;;;;;;;17.06;56.51;101621.25;4946932;29;20469;-64
2022/05/22 08:31:53;;;;;;;4.53;1.60;;;;;;;17.07;56.26;101625.59;4939828;29;20079;-63
2022/05/22 08:34:21;;;;;;;6.10;1.90;;;;;;;17.06;56.14;101618.53;4951536;29;20087;-63
2022/05/22 08:36:50;;;;;;;6.15;1.92;;;;;;;17.07;56.05;101618.28;4942076;29;20063;-64
2022/05/22 08:39:20;;;;;;;6.43;2.13;;;;;;;17.07;55.57;101610.13;4940175;29;20048;-64
2022/05/22 08:41:49;;;;;;;8.57;2.42;;;;;;;17.07;55.51;101601.16;4940261;29;20083;-63
2022/05/22 08:44:20;;;;;;;7.68;2.22;;;;;;;17.09;55.53;101601.75;4940057;29;20507;-63
2022/05/22 08:46:57;;;;;;;6.40;2.17;;;;;;;17.08;55.38;101597.38;4938387;29;20107;-64
2022/05/22 08:49:31;;;;;;;5.85;2.72;;;;;;;17.09;55.25;101591.69;4939206;29;20063;-63
2022/05/22 08:52:09;;;;;;;6.80;2.17;;;;;;;17.08;55.33;101587.34;4940107;29;20092;-63
2022/05/22 08:54:42;;;;;;;4.68;1.67;;;;;;;17.13;55.10;101592.84;4943705;29;20064;-63
2022/05/22 09:00:34;;;;;;;5.38;1.90;;;;;;;17.17;55.10;101593.19;4931371;29;20580;-63
2022/05/22 09:03:06;;;;;;;8.02;2.10;;;;;;;17.24;55.79;101585.69;4945334;29;20048;-62
2022/05/22 09:05:35;;;;;;;5.18;2.03;;;;;;;17.32;56.56;101582.56;4946364;29;20052;-62
2022/05/22 09:08:06;;;;;;;8.43;2.50;;;;;;;17.34;56.42;101577.66;4945887;29;20083;-63
2022/05/22 09:10:50;;;;;;;7.13;2.40;;;;;;;17.36;56.76;101575.50;4945462;29;20083;-63
2022/05/22 09:13:28;;;;;;;5.97;1.90;;;;;;;17.42;56.64;101571.81;4944719;29;20071;-63
2022/05/22 09:16:11;;;;;;;6.82;2.47;;;;;;;17.47;56.51;101566.44;4930914;29;20052;-63
2022/05/22 09:18:47;;;;;;;5.70;2.22;;;;;;;17.48;55.97;101569.97;4930671;29;20082;-64
2022/05/22 09:21:30;;;;;;;5.30;2.38;;;;;;;17.47;56.30;101566.44;4948459;29;20055;-65
2022/05/22 09:24:01;;;;;;;4.53;1.63;;;;;;;17.54;56.55;101574.41;4948661;29;20075;-62
2022/05/22 09:26:42;;;;;;;8.18;2.22;;;;;;;17.60;56.42;101565.25;4945846;29;20059;-63
2022/05/22 09:29:40;;;;;;;7.47;2.33;;;;;;;17.64;56.22;101557.41;4943166;29;20111;-63
2022/05/22 09:32:19;;;;;;;8.18;2.92;;;;;;;17.64;56.18;101550.09;4946290;29;20043;-65
2022/05/22 09:35:03;;;;;;;8.85;2.10;;;;;;;17.65;56.25;101549.00;4946740;29;20054;-64
2022/05/22 09:37:42;;;;;;;7.03;1.90;;;;;;;17.68;56.32;101562.13;4947971;29;20048;-61
2022/05/22 09:40:21;;;;;;;5.00;1.90;;;;;;;17.69;56.22;101549.38;4946604;29;20056;-62
2022/05/22 09:43:08;;;;;;;4.65;2.58;;;;;;;17.71;55.75;101545.31;4945947;29;20087;-63
2022/05/22 09:45:49;;;;;;;7.93;2.25;;;;;;;17.70;55.80;101542.84;4948030;29;20130;-63
2022/05/22 09:48:33;;;;;;;3.90;1.90;;;;;;;17.73;56.09;101535.03;4948420;29;20063;-62
2022/05/22 09:51:09;;;;;;;6.97;2.20;;;;;;;17.70;55.88;101532.81;4947604;29;20054;-62
2022/05/22 09:53:51;;;;;;;6.97;2.20;;;;;;;17.80;56.73;101538.38;4947017;29;20112;-64
2022/05/22 09:56:52;;;;;;;7.43;2.10;;;;;;;17.84;56.74;101542.22;4947063;29;20044;-64
2022/05/22 09:59:45;;;;;;;4.50;2.08;;;;;;;17.87;56.60;101532.75;4948375;29;20171;-64
2022/05/22 10:02:21;;;;;;;6.25;2.00;;;;;;;17.93;56.93;101533.63;4946294;29;20047;-65
2022/05/22 10:04:58;;;;;;;5.80;1.92;;;;;;;17.94;56.55;101536.09;4603353;29;9999713;-64
2022/05/22 10:07:29;;;;;;;;;;;;;;;17.99;56.39;101535.34;4948186;29;20082;-63
2022/05/22 10:10:07;;;;;;;7.00;2.05;;;;;;;18.05;56.78;101535.13;4945923;29;19926;-63
2022/05/22 10:12:47;;;;;;;10.95;2.33;;;;;;;18.13;56.85;101531.13;4943429;29;20088;-62
2022/05/22 10:15:34;;;;;;;7.70;2.35;;;;;;;18.41;56.52;101527.34;4949309;29;20055;-62
2022/05/22 10:18:18;;;;;;;7.38;2.95;;;;;;;18.35;56.99;101522.94;4932919;29;20744;-62
2022/05/22 10:20:59;;;;;;;3.38;1.88;;;;;;;18.39;56.74;101529.50;4940788;29;20473;-62
2022/05/22 10:23:41;;;;;;;4.70;2.13;;;;;;;18.58;56.28;101532.69;4944264;29;20511;-62
2022/05/22 10:26:19;;;;;;;3.40;1.85;;;;;;;18.55;56.52;101525.84;4945131;29;20071;-62
2022/05/22 10:28:53;;;;;;;5.90;1.95;;;;;;;18.57;56.69;101515.53;4943488;29;20051;-63
2022/05/22 10:31:29;;;;;;;5.55;1.85;;;;;;;18.58;56.51;101519.06;4945514;29;20126;-62
2022/05/22 10:34:04;;;;;;;5.22;1.80;;;;;;;18.60;56.46;101517.72;4947766;29;20638;-62
2022/05/22 10:36:39;;;;;;;4.10;1.52;;;;;;;18.60;56.30;101517.72;4938686;29;20078;-63
2022/05/22 10:39:08;;;;;;;5.93;2.20;;;;;;;18.63;56.30;101514.53;4942702;29;20091;-62
2022/05/22 10:44:31;;;;;;;5.78;1.77;;;;;;;18.67;55.98;101502.03;4936086;29;20114;-61
2022/05/22 10:47:02;;;;;;;8.88;2.42;;;;;;;18.71;55.59;101497.72;4952470;29;20058;-65
2022/05/22 10:49:39;;;;;;;11.68;3.03;;;;;;;18.73;55.21;101492.81;4942997;29;20066;-62
2022/05/22 10:52:08;;;;;;;19.45;3.92;;;;;;;18.75;55.07;101481.66;4943760;29;20135;-61
2022/05/22 10:54:45;;;;;;;13.32;3.47;;;;;;;18.75;55.04;101482.50;4953033;29;20086;-61
2022/05/22 10:57:16;;;;;;;9.45;2.95;;;;;;;18.79;55.26;101469.16;4953947;29;20047;-62
2022/05/22 10:59:44;;;;;;;5.93;2.33;;;;;;;18.91;55.09;101466.25;4946150;29;20054;-61
2022/05/22 11:02:19;;;;;;;4.88;2.35;;;;;;;18.92;55.34;101471.44;4944569;29;20501;-62
2022/05/22 11:04:48;;;;;;;8.45;3.03;;;;;;;19.04;55.45;101476.69;4940120;29;20055;-62
2022/05/22 11:07:29;;;;;;;5.68;1.90;;;;;;;19.10;55.27;101472.88;4942946;29;20060;-62
2022/05/22 11:10:06;;;;;;;9.30;2.63;;;;;;;19.14;55.04;101474.00;4954321;29;20091;-62
2022/05/22 11:12:34;;;;;;;6.43;2.13;;;;;;;19.16;54.99;101461.75;4940795;29;20056;-62
2022/05/22 11:15:10;;;;;;;6.85;2.45;;;;;;;19.16;54.93;101464.47;4942045;29;20107;-62
2022/05/22 11:17:40;;;;;;;4.22;1.98;;;;;;;19.18;55.14;101456.88;4939500;29;20095;-61
2022/05/22 11:20:15;;;;;;;7.53;2.22;;;;;;;19.18;54.76;101453.31;4943987;29;20070;-62
2022/05/22 11:22:59;;;;;;;7.93;2.92;;;;;;;19.17;53.28;101446.22;4942467;29;20079;-61
2022/05/22 11:25:39;;;;;;;7.60;2.53;;;;;;;19.16;53.65;101431.78;4936074;29;20043;-61
2022/05/22 11:28:25;;;;;;;8.50;2.50;;;;;;;19.21;54.28;101430.16;4935631;29;20052;-63
2022/05/22 11:31:01;;;;;;;8.63;2.10;;;;;;;19.24;54.19;101421.47;4936460;29;20044;-62
2022/05/22 11:33:46;;;;;;;8.68;2.95;;;;;;;19.30;54.14;101420.41;4942334;29;20337;-62
2022/05/22 11:36:29;;;;;;;6.50;2.13;;;;;;;19.41;54.06;101420.19;4945923;29;20082;-63
2022/05/22 11:39:14;;;;;;;7.43;2.55;;;;;;;19.47;54.46;101419.09;4947123;29;20082;-62
2022/05/22 11:41:49;;;;;;;7.40;2.20;;;;;;;19.52;54.23;101423.78;4942012;29;20047;-61
2022/05/22 11:44:42;;;;;;;5.57;1.90;;;;;;;19.53;54.18;101405.53;4944634;29;20082;-63
2022/05/22 11:47:56;;;;;;;7.72;2.03;;;;;;;19.57;54.06;101420.25;4943236;29;20055;-62
2022/05/22 11:50:33;;;;;;;5.43;2.17;;;;;;;19.60;53.89;101406.09;4958536;29;20122;-62
2022/05/22 11:53:29;;;;;;;4.45;2.13;;;;;;;19.60;53.44;101401.47;4935227;29;20064;-62
2022/05/22 11:56:14;;;;;;;6.38;2.35;;;;;;;19.67;53.77;101385.66;4943640;29;20055;-62
2022/05/22 11:58:50;;;;;;;8.10;1.90;;;;;;;19.71;53.38;101384.03;4940713;29;20050;-63